Time,TemperatureF,DewpointF,PressureIn,WindDirection,WindDirectionDegrees,WindSpeedMPH,WindSpeedGustMPH,Humidity,HourlyPrecipIn,Conditions,Clouds,dailyrainin,SoftwareType,DateUTC
2013-01-31 06:00:00,7.0,5.0,-100.00,WNW,295,30.0,60.0,89,-99.99,,,-99.99,,2013-01-31 13:00:00,
2013-01-31 08:00:00,7.0,4.0,-100.00,WNW,293,25.0,55.0,88,-99.99,,,-99.99,,2013-01-31 15:00:00,
2013-01-31 08:42:00,7.0,4.0,-100.00,WNW,293,25.0,55.0,88,-99.99,,,-99.99,,2013-01-31 15:42:00,
2013-01-31 08:52:00,7.0,4.0,-100.00,WNW,293,25.0,55.0,88,-99.99,,,-99.99,,2013-01-31 15:52:00,
2013-01-31 09:00:00,7.0,4.0,-100.00,WNW,292,27.0,58.0,88,-99.99,,,-99.99,,2013-01-31 16:00:00,
2013-01-31 09:42:00,7.0,4.0,-100.00,WNW,292,27.0,58.0,88,-99.99,,,-99.99,,2013-01-31 16:42:00,
2013-01-31 09:52:00,7.0,4.0,-100.00,WNW,292,27.0,58.0,88,-99.99,,,-99.99,,2013-01-31 16:52:00,
2013-01-31 13:00:00,10.0,7.0,-100.00,WSW,256,18.0,35.0,87,-99.99,,,-99.99,,2013-01-31 20:00:00,
2013-01-31 13:42:00,10.0,7.0,-100.00,WSW,256,18.0,35.0,87,-99.99,,,-99.99,,2013-01-31 20:42:00,
2013-01-31 13:52:00,10.0,7.0,-100.00,WSW,256,18.0,35.0,87,-99.99,,,-99.99,,2013-01-31 20:52:00,
2013-01-31 19:00:00,11.0,4.0,-100.00,WSW,257,12.0,20.0,74,-99.99,,,-99.99,,2013-02-01 02:00:00,
2013-01-31 19:42:00,11.0,4.0,-100.00,WSW,257,12.0,20.0,74,-99.99,,,-99.99,,2013-02-01 02:42:00,
2013-01-31 19:52:00,11.0,4.0,-100.00,WSW,257,12.0,20.0,74,-99.99,,,-99.99,,2013-02-01 02:52:00,
2013-01-31 21:00:00,9.0,6.0,-100.00,WSW,254,22.0,34.0,86,-99.99,,,-99.99,,2013-02-01 04:00:00,
2013-01-31 21:42:00,9.0,6.0,-100.00,WSW,254,22.0,34.0,86,-99.99,,,-99.99,,2013-02-01 04:42:00,
2013-01-31 21:52:00,9.0,6.0,-100.00,WSW,254,22.0,34.0,86,-99.99,,,-99.99,,2013-02-01 04:52:00,
2013-01-31 22:00:00,9.0,7.0,-100.00,West,259,24.0,37.0,92,-99.99,,,-99.99,,2013-02-01 05:00:00,
2013-01-31 22:42:00,9.0,7.0,-100.00,West,259,24.0,37.0,92,-99.99,,,-99.99,,2013-02-01 05:42:00,
2013-01-31 22:52:00,9.0,7.0,-100.00,West,259,24.0,37.0,92,-99.99,,,-99.99,,2013-02-01 05:52:00,
2013-01-31 23:00:00,9.0,7.0,-100.00,WSW,254,25.0,37.0,92,-99.99,,,-99.99,,2013-02-01 06:00:00,
2013-01-31 23:42:00,9.0,7.0,-100.00,WSW,254,25.0,37.0,92,-99.99,,,-99.99,,2013-02-01 06:42:00,
2013-01-31 23:52:00,9.0,7.0,-100.00,WSW,254,25.0,37.0,92,-99.99,,,-99.99,,2013-02-01 06:52:00,